Barcelona, Spain

3:31 PM CEST on September 03, 2015 (GMT +0200)
Avenida doctor Gallart i Mones, | | Change Station
CLOSE
Current Station
Personal Weather Station
Location: El Prat De Llobregat, CATALUNYA
Elevation: 13 ft
Nearby Weather Stations

Elev 13 ft 41.32 °N, 2.09 °E | Updated 27 seconds ago

Mostly Cloudy
Mostly Cloudy
73.9 °F
Feels Like 76 °F
N
12.0
Wind Variable Wind from NE
Gusts 14.0 mph

Today
High -- | Low -- °F
--% Chance of Precip.
Yesterday
High -- | Low -- °F
Precip. -- in
7:19 AM 8:22 PM
Waning Gibbous, 70% visible
Pressure 29.95 in
Visibility 6.2 miles
Clouds Few 2000 ft
Mostly Cloudy 3500 ft
Heat Index 76 °F
Dew Point 61 °F
Humidity 64%
Rainfall 0.11 in
Snow Depth Not available.
UV 3.5 out of 12
Pollen Not available.
Air Quality Not available.
Flu Activity Not available.
METAR LEBL 031300Z 07012KT 9999 FEW020 BKN035 24/15 Q1014 NOSIG
Pressure 29.95 in
Visibility 6.2 miles
Clouds Few 2000 ft
Mostly Cloudy 3500 ft
Heat Index 76 °F
Dew Point 61 °F
Humidity 64%
Rainfall 0.11 in
Snow Depth Not available.
UV 3.5 out of 12
Pollen Not available.
Air Quality Not available.
Flu Activity Not available.
METAR LEBL 031300Z 07012KT 9999 FEW020 BKN035 24/15 Q1014 NOSIG

10-Day Weather Forecast

×

Almanac

Astronomy

Sep. 03, 2015 Rise Set
Actual Time
Civil Twilight
Nautical Twilight
Astronomical Twilight
Moon
Length of Visible Light
Length of Day
Tomorrow will be .
, % of the Moon is Illuminated

Today's Extremes

Country Highs Country Lows

Community

WunderPhotos

Upload Photos

1,851,952 photos uploaded!

WunderBlogs® & News

Nearby

Air Quality

  Air Quality AQ Index Pollutant
Not available.

Snow Depth

Station Depth Elevation

Earthquake Activity

City Distance Mag. Time & Date
Minimum magnitude displayed is 2.5.

Coastal Water Temperatures

Place Temperature

Stations

Nearby Weather Stations

Station Location Temp. Windchill Dew Point Humidity Wind Precip. Elev Updated Type